createdAt,value
2024-04-18T00:00:17.636Z,100770.88
2024-04-18T00:02:47.235Z,100771.75
2024-04-18T00:05:31.103Z,100761.75
2024-04-18T00:08:00.706Z,100771.19
2024-04-18T00:10:30.090Z,100771.78
2024-04-18T00:12:59.663Z,100769.72
2024-04-18T00:15:26.888Z,100765.63
2024-04-18T00:18:00.761Z,100769.13
2024-04-18T00:20:28.524Z,100771.50
2024-04-18T00:22:58.036Z,100775.03
2024-04-18T00:25:32.944Z,100765.47
2024-04-18T00:28:02.807Z,100773.13
2024-04-18T00:30:45.277Z,100771.81
2024-04-18T00:33:12.764Z,100772.03
2024-04-18T00:35:42.841Z,100770.22
2024-04-18T00:38:12.918Z,100770.72
2024-04-18T00:40:49.068Z,100780.72
2024-04-18T00:43:20.810Z,100772.25
2024-04-18T00:45:59.283Z,100780.69
2024-04-18T00:48:27.336Z,100791.56
2024-04-18T00:50:59.870Z,100784.84
2024-04-18T00:53:26.973Z,100790.94
2024-04-18T00:55:59.606Z,100804.06
2024-04-18T00:58:48.384Z,100791.00
2024-04-18T01:01:26.864Z,100787.75
2024-04-18T01:03:54.142Z,100791.00
2024-04-18T01:06:42.196Z,100805.47
2024-04-18T01:09:15.757Z,100797.97
2024-04-18T01:12:08.481Z,100789.63
2024-04-18T01:14:35.465Z,100793.25
2024-04-18T01:17:05.946Z,100796.03
2024-04-18T01:19:33.423Z,100800.81
2024-04-18T01:22:05.492Z,100801.75
2024-04-18T01:24:33.584Z,100801.53
2024-04-18T01:27:05.909Z,100803.56
2024-04-18T01:29:44.758Z,100808.59
2024-04-18T01:32:36.453Z,100806.97
2024-04-18T01:35:04.401Z,100794.50
2024-04-18T01:37:49.777Z,100804.75
2024-04-18T01:40:17.010Z,100813.13
2024-04-18T01:42:49.175Z,100802.38
2024-04-18T01:45:25.098Z,100807.53
2024-04-18T01:48:14.830Z,100815.09
2024-04-18T01:51:00.458Z,100821.56
2024-04-18T01:53:37.556Z,100815.53
2024-04-18T01:56:18.226Z,100818.50
2024-04-18T01:58:50.919Z,100827.22
2024-04-18T02:01:23.846Z,100826.72
2024-04-18T02:03:53.561Z,100835.66
2024-04-18T02:06:20.446Z,100834.56
2024-04-18T02:08:50.309Z,100836.16
2024-04-18T02:11:39.917Z,100833.47
2024-04-18T02:14:17.101Z,100844.81
2024-04-18T02:16:46.804Z,100844.38
2024-04-18T02:19:22.865Z,100845.09
2024-04-18T02:22:01.178Z,100848.03
2024-04-18T02:24:38.625Z,100849.06
2024-04-18T02:27:08.400Z,100859.19
2024-04-18T02:29:38.045Z,100859.34
2024-04-18T02:32:07.966Z,100857.63
2024-04-18T02:34:34.955Z,100849.38
2024-04-18T02:37:25.067Z,100851.91
2024-04-18T02:39:52.141Z,100861.97
2024-04-18T02:42:28.775Z,100862.34
2024-04-18T02:45:01.524Z,100863.97
2024-04-18T02:47:51.146Z,100865.88
2024-04-18T02:50:36.658Z,100871.09
2024-04-18T02:53:06.258Z,100872.34
2024-04-18T02:55:33.063Z,100873.22
2024-04-18T02:58:02.581Z,100873.34
2024-04-18T03:00:32.212Z,100883.22
2024-04-18T03:03:13.679Z,100892.06
2024-04-18T03:06:02.866Z,100885.47
2024-04-18T03:08:32.386Z,100878.41
2024-04-18T03:11:15.934Z,100882.03
2024-04-18T03:14:05.591Z,100895.00
2024-04-18T03:16:35.144Z,100886.38
2024-04-18T03:19:22.703Z,100897.59
2024-04-18T03:21:52.350Z,100893.72
2024-04-18T03:24:22.946Z,100893.97
2024-04-18T03:26:51.745Z,100891.47
2024-04-18T03:29:21.304Z,100893.78
2024-04-18T03:31:59.959Z,100899.69
2024-04-18T03:34:47.934Z,100905.84
2024-04-18T03:37:17.424Z,100910.44
2024-04-18T03:39:47.071Z,100906.53
2024-04-18T03:42:16.703Z,100905.00
2024-04-18T03:44:55.244Z,100920.63
2024-04-18T03:47:27.567Z,100920.66
2024-04-18T03:50:11.901Z,100920.47
2024-04-18T03:52:39.243Z,100921.69
2024-04-18T03:55:27.152Z,100923.38
2024-04-18T03:57:53.988Z,100924.03
2024-04-18T04:00:42.938Z,100925.78
2024-04-18T04:03:12.912Z,100929.31
2024-04-18T04:05:42.432Z,100929.47
2024-04-18T04:08:10.545Z,100936.38
2024-04-18T04:10:43.423Z,100941.41
2024-04-18T04:13:10.256Z,100948.94
2024-04-18T04:15:45.948Z,100942.91
2024-04-18T04:18:35.715Z,100946.50
2024-04-18T04:21:40.381Z,100951.13
2024-04-18T04:24:07.988Z,100955.38
2024-04-18T04:27:07.105Z,100957.72
2024-04-18T04:29:34.034Z,100970.78
2024-04-18T04:32:03.528Z,100973.38
2024-04-18T04:34:33.107Z,100975.13
2024-04-18T04:37:02.654Z,100965.06
2024-04-18T04:39:29.614Z,100972.94
2024-04-18T04:42:19.110Z,100977.47
2024-04-18T04:44:46.102Z,100976.41
2024-04-18T04:47:33.860Z,100980.69
2024-04-18T04:50:24.954Z,100992.28
2024-04-18T04:53:14.460Z,100996.66
2024-04-18T04:55:59.454Z,100998.47
2024-04-18T04:58:29.095Z,100998.41
2024-04-18T05:00:57.100Z,100999.16
2024-04-18T05:03:47.534Z,101008.56
2024-04-18T05:06:26.749Z,101014.63
2024-04-18T05:09:14.543Z,101009.97
2024-04-18T05:11:41.344Z,101018.28
2024-04-18T05:14:30.298Z,101023.22
2024-04-18T05:16:57.309Z,101030.22
2024-04-18T05:19:26.849Z,101027.84
2024-04-18T05:21:56.412Z,101033.22
2024-04-18T05:24:35.213Z,101042.28
2024-04-18T05:27:02.548Z,101041.28
2024-04-18T05:29:48.066Z,101046.13
2024-04-18T05:32:17.613Z,101056.25
2024-04-18T05:35:06.340Z,101058.88
2024-04-18T05:37:38.328Z,101066.63
2024-04-18T05:40:08.884Z,101064.84
2024-04-18T05:42:38.429Z,101062.34
2024-04-18T05:45:09.313Z,101073.06
2024-04-18T05:47:59.110Z,101072.09
2024-04-18T05:50:29.553Z,101068.72
2024-04-18T05:53:01.680Z,101066.22
2024-04-18T05:55:51.190Z,101069.78
2024-04-18T05:58:20.610Z,101077.31
2024-04-18T06:00:56.681Z,101081.88
2024-04-18T06:03:27.234Z,101098.06
2024-04-18T06:05:57.400Z,101082.66
2024-04-18T06:08:29.534Z,101090.69
2024-04-18T06:10:59.070Z,101079.09
2024-04-18T06:13:28.694Z,101099.34
2024-04-18T06:15:56.845Z,101098.06
2024-04-18T06:18:29.133Z,101095.31
2024-04-18T06:20:58.799Z,101099.19
2024-04-18T06:23:30.923Z,101107.09
2024-04-18T06:26:19.102Z,101096.91
2024-04-18T06:28:48.763Z,101115.78
2024-04-18T06:31:19.549Z,101112.56
2024-04-18T06:33:49.311Z,101112.13
2024-04-18T06:36:17.050Z,101115.41
2024-04-18T06:38:49.160Z,101110.03
2024-04-18T06:41:18.699Z,101102.16
2024-04-18T06:43:48.208Z,101122.94
2024-04-18T06:46:17.702Z,101112.69
2024-04-18T06:48:47.275Z,101124.81
2024-04-18T06:51:17.003Z,101132.47
2024-04-18T06:53:49.108Z,101125.16
2024-04-18T06:56:19.723Z,101119.03
2024-04-18T06:58:50.686Z,101126.75
2024-04-18T07:01:40.198Z,101132.94
2024-04-18T07:04:09.867Z,101131.50
2024-04-18T07:06:39.440Z,101126.34
2024-04-18T07:09:11.392Z,101129.13
2024-04-18T07:11:46.908Z,101127.78
2024-04-18T07:14:17.027Z,101134.47
2024-04-18T07:17:06.891Z,101134.47
2024-04-18T07:19:36.398Z,101161.81
2024-04-18T07:22:05.916Z,101150.94
2024-04-18T07:25:07.819Z,101146.09
2024-04-18T07:27:39.225Z,101149.75
2024-04-18T07:30:11.124Z,101147.03
2024-04-18T07:32:49.982Z,101158.84
2024-04-18T07:35:19.573Z,101163.56
2024-04-18T07:37:49.605Z,101152.09
2024-04-18T07:40:22.530Z,101168.09
2024-04-18T07:42:52.576Z,101178.94
2024-04-18T07:45:22.191Z,101171.53
2024-04-18T07:47:51.882Z,101150.25
2024-04-18T07:50:21.392Z,101172.94
2024-04-18T07:52:57.067Z,101178.75
2024-04-18T07:55:36.115Z,101168.31
2024-04-18T07:58:06.735Z,101168.44
2024-04-18T08:00:38.080Z,101164.50
2024-04-18T08:03:10.214Z,101163.16
2024-04-18T08:05:42.225Z,101153.69
2024-04-18T08:08:15.978Z,101156.94
2024-04-18T08:11:08.410Z,101190.84
2024-04-18T08:13:43.011Z,101187.22
2024-04-18T08:16:15.671Z,101188.19
2024-04-18T08:18:45.939Z,101195.91
2024-04-18T08:21:15.500Z,101202.63
2024-04-18T08:23:52.045Z,101202.66
2024-04-18T08:26:24.160Z,101179.84
2024-04-18T08:28:53.705Z,101196.66
2024-04-18T08:31:28.822Z,101171.81
2024-04-18T08:34:07.322Z,101187.94
2024-04-18T08:36:41.259Z,101206.63
2024-04-18T08:39:11.143Z,101191.84
2024-04-18T08:41:44.367Z,101215.25
2024-04-18T08:44:15.219Z,101212.22
2024-04-18T08:46:47.976Z,101211.69
2024-04-18T08:49:17.580Z,101194.84
2024-04-18T08:51:47.546Z,101210.00
2024-04-18T08:54:18.246Z,101187.19
2024-04-18T08:56:54.587Z,101202.03
2024-04-18T08:59:24.230Z,101199.13
2024-04-18T09:01:53.902Z,101213.84
2024-04-18T09:04:23.429Z,101209.22
2024-04-18T09:06:52.997Z,101212.50
2024-04-18T09:09:25.928Z,101201.69
2024-04-18T09:11:57.378Z,101227.00
2024-04-18T09:14:26.927Z,101228.38
2024-04-18T09:16:56.419Z,101216.91
2024-04-18T09:19:26.159Z,101186.63
2024-04-18T09:21:55.726Z,101200.50
2024-04-18T09:24:25.608Z,101197.03
2024-04-18T09:26:59.310Z,101197.53
2024-04-18T09:29:28.872Z,101208.78
2024-04-18T09:32:01.045Z,101194.72
2024-04-18T09:34:33.819Z,101202.56
2024-04-18T09:37:06.462Z,101196.97
2024-04-18T09:39:37.437Z,101202.63
2024-04-18T09:42:16.157Z,101214.88
2024-04-18T09:44:46.655Z,101228.34
2024-04-18T09:47:16.905Z,101209.25
2024-04-18T09:49:46.934Z,101202.63
2024-04-18T09:52:17.323Z,101209.66
2024-04-18T09:54:47.458Z,101223.91
2024-04-18T09:57:19.726Z,101237.75
2024-04-18T09:59:49.515Z,101227.50
2024-04-18T10:02:22.227Z,101226.78
2024-04-18T10:04:52.370Z,101231.88
2024-04-18T10:07:22.574Z,101212.75
2024-04-18T10:09:52.658Z,101210.34
2024-04-18T10:12:33.571Z,101237.31
2024-04-18T10:15:03.425Z,101226.75
2024-04-18T10:17:35.187Z,101210.63
2024-04-18T10:20:02.518Z,101209.91
2024-04-18T10:22:45.321Z,101233.00
2024-04-18T10:25:21.631Z,101215.63
2024-04-18T10:27:54.294Z,101205.34
2024-04-18T10:30:26.411Z,101208.78
2024-04-18T10:32:56.733Z,101222.94
2024-04-18T10:35:29.000Z,101225.72
2024-04-18T10:37:59.328Z,101225.72
2024-04-18T10:40:29.123Z,101215.28
2024-04-18T10:43:17.625Z,101210.22
2024-04-18T10:45:48.077Z,101196.78
2024-04-18T10:48:21.789Z,101207.34
2024-04-18T10:50:52.056Z,101195.38
2024-04-18T10:53:22.010Z,101221.44
2024-04-18T10:55:51.787Z,101215.63
2024-04-18T10:58:24.118Z,101214.97
2024-04-18T11:00:59.408Z,101192.56
2024-04-18T11:03:29.201Z,101210.09
2024-04-18T11:05:58.857Z,101216.03
2024-04-18T11:08:31.991Z,101212.06
2024-04-18T11:11:04.211Z,101206.19
2024-04-18T11:13:36.616Z,101208.31
2024-04-18T11:16:06.646Z,101223.91
2024-04-18T11:18:36.466Z,101200.28
2024-04-18T11:21:07.127Z,101204.84
2024-04-18T11:23:44.280Z,101209.97
2024-04-18T11:26:17.018Z,101207.91
2024-04-18T11:28:50.807Z,101204.75
2024-04-18T11:31:17.770Z,101195.88
2024-04-18T11:33:48.094Z,101178.31
2024-04-18T11:36:17.950Z,101186.84
2024-04-18T11:38:47.485Z,101207.50
2024-04-18T11:41:18.873Z,101203.75
2024-04-18T11:43:51.042Z,101186.78
2024-04-18T11:46:20.550Z,101201.09
2024-04-18T11:48:50.176Z,101189.66
2024-04-18T11:51:19.850Z,101198.13
2024-04-18T11:53:49.386Z,101189.63
2024-04-18T11:56:36.858Z,101175.19
2024-04-18T11:59:28.858Z,101161.72
2024-04-18T12:01:58.356Z,101174.88
2024-04-18T12:04:28.062Z,101184.13
2024-04-18T12:06:58.199Z,101183.50
2024-04-18T12:09:31.776Z,101184.72
2024-04-18T12:12:02.249Z,101199.31
2024-04-18T12:14:50.028Z,101189.84
2024-04-18T12:17:28.731Z,101190.13
2024-04-18T12:20:18.134Z,101189.72
2024-04-18T12:22:47.741Z,101202.19
2024-04-18T12:25:19.066Z,101189.59
2024-04-18T12:27:46.936Z,101199.28
2024-04-18T12:30:37.354Z,101186.56
2024-04-18T12:33:23.777Z,101173.28
2024-04-18T12:35:53.535Z,101175.28
2024-04-18T12:38:23.097Z,101183.84
2024-04-18T12:41:04.721Z,101175.94
2024-04-18T12:43:35.905Z,101180.84
2024-04-18T12:46:28.392Z,101197.28
2024-04-18T12:48:58.582Z,101186.53
2024-04-18T12:51:28.359Z,101198.81
2024-04-18T12:53:57.946Z,101171.19
2024-04-18T12:56:49.849Z,101167.59
2024-04-18T12:59:26.321Z,101180.56
2024-04-18T13:01:58.505Z,101187.66
2024-04-18T13:04:25.601Z,101168.56
2024-04-18T13:06:55.161Z,101162.06
2024-04-18T13:09:30.910Z,101164.63
2024-04-18T13:12:04.242Z,101171.81
2024-04-18T13:14:52.520Z,101154.81
2024-04-18T13:17:24.875Z,101171.44
2024-04-18T13:19:54.806Z,101164.69
2024-04-18T13:22:24.310Z,101180.00
2024-04-18T13:24:53.854Z,101176.22
2024-04-18T13:27:31.003Z,101167.34
2024-04-18T13:30:00.695Z,101152.53
2024-04-18T13:32:41.607Z,101176.75
2024-04-18T13:35:11.688Z,101173.59
2024-04-18T13:37:41.242Z,101162.06
2024-04-18T13:40:20.167Z,101165.38
2024-04-18T13:43:00.637Z,101172.41
2024-04-18T13:45:30.408Z,101163.88
2024-04-18T13:48:03.306Z,101164.41
2024-04-18T13:50:45.354Z,101158.84
2024-04-18T13:53:16.668Z,101157.09
2024-04-18T13:55:53.380Z,101143.50
2024-04-18T13:58:24.704Z,101153.84
2024-04-18T14:01:02.899Z,101162.97
2024-04-18T14:03:35.493Z,101149.50
2024-04-18T14:06:11.603Z,101167.78
2024-04-18T14:08:41.581Z,101159.56
2024-04-18T14:11:31.002Z,101154.59
2024-04-18T14:14:11.247Z,101138.50
2024-04-18T14:17:16.893Z,101148.84
2024-04-18T14:20:07.193Z,101145.28
2024-04-18T14:22:51.310Z,101133.38
2024-04-18T14:25:20.784Z,101141.22
2024-04-18T14:28:20.215Z,101156.97
2024-04-18T14:31:17.647Z,101154.31
2024-04-18T14:33:50.324Z,101155.50
2024-04-18T14:36:22.552Z,101151.06
2024-04-18T14:38:52.187Z,101155.16
2024-04-18T14:41:21.761Z,101162.25
2024-04-18T14:43:57.625Z,101155.78
2024-04-18T14:46:29.128Z,101132.34
2024-04-18T14:49:18.733Z,101160.09
2024-04-18T14:51:59.942Z,101138.72
2024-04-18T14:54:26.911Z,101140.88
2024-04-18T14:56:56.463Z,101147.94
2024-04-18T14:59:54.882Z,101139.25
2024-04-18T15:02:24.434Z,101138.38
2024-04-18T15:05:03.251Z,101136.16
2024-04-18T15:07:32.878Z,101142.47
2024-04-18T15:10:18.685Z,101126.44
2024-04-18T15:13:00.464Z,101133.94
2024-04-18T15:15:29.996Z,101133.16
2024-04-18T15:17:59.591Z,101120.97
2024-04-18T15:20:29.152Z,101124.13
2024-04-18T15:23:13.248Z,101143.34
2024-04-18T15:25:43.361Z,101125.94
2024-04-18T15:28:12.869Z,101136.78
2024-04-18T15:30:42.412Z,101137.09
2024-04-18T15:33:21.056Z,101128.13
2024-04-18T15:35:53.188Z,101138.22
2024-04-18T15:38:25.359Z,101115.44
2024-04-18T15:41:13.275Z,101117.41
2024-04-18T15:43:42.785Z,101125.00
2024-04-18T15:46:32.459Z,101112.56
2024-04-18T15:49:09.684Z,101107.97
2024-04-18T15:51:39.896Z,101113.47
2024-04-18T15:54:12.259Z,101128.66
2024-04-18T15:56:41.853Z,101128.25
2024-04-18T15:59:31.356Z,101120.66
2024-04-18T16:02:06.844Z,101115.38
2024-04-18T16:04:46.034Z,101108.78
2024-04-18T16:07:16.111Z,101110.22
2024-04-18T16:09:58.161Z,101113.91
2024-04-18T16:12:27.794Z,101125.88
2024-04-18T16:15:04.632Z,101129.59
2024-04-18T16:17:35.428Z,101128.69
2024-04-18T16:20:14.270Z,101112.09
2024-04-18T16:22:43.833Z,101118.84
2024-04-18T16:25:39.404Z,101112.53
2024-04-18T16:28:10.143Z,101107.09
2024-04-18T16:31:00.474Z,101114.06
2024-04-18T16:33:30.093Z,101107.28
2024-04-18T16:35:59.730Z,101107.28
2024-04-18T16:38:29.232Z,101105.47
2024-04-18T16:41:01.369Z,101099.09
2024-04-18T16:43:37.309Z,101108.56
2024-04-18T16:46:09.067Z,101099.97
2024-04-18T16:48:40.002Z,101095.31
2024-04-18T16:51:09.730Z,101088.84
2024-04-18T16:53:57.962Z,101103.13
2024-04-18T16:56:39.436Z,101113.38
2024-04-18T16:59:06.418Z,101095.84
2024-04-18T17:01:35.955Z,101090.69
2024-04-18T17:04:05.644Z,101098.28
2024-04-18T17:06:41.870Z,101090.09
2024-04-18T17:09:18.346Z,101075.75
2024-04-18T17:11:51.923Z,101088.16
2024-04-18T17:14:55.721Z,101092.38
2024-04-18T17:17:25.300Z,101095.13
2024-04-18T17:19:57.991Z,101106.94
2024-04-18T17:22:28.068Z,101086.44
2024-04-18T17:24:57.631Z,101090.44
2024-04-18T17:27:29.824Z,101085.84
2024-04-18T17:29:59.578Z,101084.44
2024-04-18T17:32:29.307Z,101086.31
2024-04-18T17:34:59.054Z,101084.88
2024-04-18T17:37:43.690Z,101089.06
2024-04-18T17:40:25.317Z,101077.44
2024-04-18T17:43:03.305Z,101084.94
2024-04-18T17:45:34.208Z,101080.97
2024-04-18T17:48:16.506Z,101075.31
2024-04-18T17:50:46.173Z,101083.50
2024-04-18T17:53:15.667Z,101075.88
2024-04-18T17:55:45.201Z,101077.38
2024-04-18T17:58:17.358Z,101072.63
2024-04-18T18:00:47.326Z,101075.28
2024-04-18T18:03:17.100Z,101082.22
2024-04-18T18:05:47.440Z,101061.25
2024-04-18T18:08:32.443Z,101071.44
2024-04-18T18:11:20.179Z,101064.09
2024-04-18T18:13:53.813Z,101066.25
2024-04-18T18:16:23.553Z,101060.81
2024-04-18T18:18:52.953Z,101051.47
2024-04-18T18:21:22.515Z,101060.34
2024-04-18T18:23:52.055Z,101054.09
2024-04-18T18:26:41.097Z,101053.63
2024-04-18T18:29:10.618Z,101058.16
2024-04-18T18:31:58.403Z,101062.19
2024-04-18T18:34:27.911Z,101052.00
2024-04-18T18:36:54.685Z,101042.00
2024-04-18T18:39:24.660Z,101053.69
2024-04-18T18:41:51.702Z,101049.22
2024-04-18T18:44:24.523Z,101060.94
2024-04-18T18:46:51.597Z,101054.34
2024-04-18T18:49:21.222Z,101054.53
2024-04-18T18:51:48.284Z,101051.59
2024-04-18T18:54:17.888Z,101060.53
2024-04-18T18:56:44.979Z,101050.06
2024-04-18T18:59:35.338Z,101042.53
2024-04-18T19:02:02.334Z,101039.06
2024-04-18T19:04:31.922Z,101034.06
2024-04-18T19:06:59.070Z,101026.97
2024-04-18T19:09:28.782Z,101031.84
2024-04-18T19:11:55.717Z,101035.56
2024-04-18T19:14:26.128Z,101031.81
2024-04-18T19:17:22.133Z,101025.44
2024-04-18T19:19:52.831Z,101032.41
2024-04-18T19:22:19.762Z,101037.66
2024-04-18T19:24:49.318Z,101025.97
2024-04-18T19:27:16.426Z,101021.44
2024-04-18T19:29:47.855Z,101016.63
2024-04-18T19:32:16.432Z,101017.03
2024-04-18T19:34:48.717Z,101014.00
2024-04-18T19:37:15.651Z,101015.91
2024-04-18T19:39:45.264Z,101023.94
2024-04-18T19:42:12.221Z,101017.97
2024-04-18T19:44:41.785Z,101025.06
2024-04-18T19:47:08.557Z,101011.78
2024-04-18T19:49:38.449Z,101025.97
2024-04-18T19:52:09.048Z,101017.75
2024-04-18T19:54:38.927Z,101004.41
2024-04-18T19:57:06.783Z,100998.69
2024-04-18T19:59:36.627Z,100997.31
2024-04-18T20:02:04.043Z,100997.97
2024-04-18T20:04:33.712Z,100985.16
2024-04-18T20:07:01.028Z,100996.53
2024-04-18T20:09:33.642Z,100990.41
2024-04-18T20:12:02.040Z,100979.97
2024-04-18T20:14:31.703Z,100975.66
2024-04-18T20:16:58.659Z,100977.22
2024-04-18T20:19:29.453Z,100972.81
2024-04-18T20:21:56.414Z,100974.03
2024-04-18T20:24:27.912Z,100981.00
2024-04-18T20:27:16.127Z,100968.00
2024-04-18T20:29:48.989Z,100961.94
2024-04-18T20:32:22.066Z,100955.25
2024-04-18T20:34:51.860Z,100943.56
2024-04-18T20:37:18.912Z,100957.06
2024-04-18T20:39:48.585Z,100951.41
2024-04-18T20:42:18.333Z,100935.53
2024-04-18T20:45:05.250Z,100939.38
2024-04-18T20:47:34.590Z,100936.41
2024-04-18T20:50:08.743Z,100924.31
2024-04-18T20:52:35.900Z,100937.72
2024-04-18T20:55:05.450Z,100931.28
2024-04-18T20:57:35.399Z,100922.31
2024-04-18T21:00:05.008Z,100926.88
2024-04-18T21:02:33.425Z,100932.22
2024-04-18T21:05:03.855Z,100927.13
2024-04-18T21:07:30.890Z,100927.28
2024-04-18T21:10:00.455Z,100915.91
2024-04-18T21:12:27.691Z,100925.44
2024-04-18T21:14:59.898Z,100906.53
2024-04-18T21:17:27.785Z,100915.38
2024-04-18T21:19:57.366Z,100898.56
2024-04-18T21:22:24.112Z,100899.22
2024-04-18T21:24:53.627Z,100892.19
2024-04-18T21:27:20.626Z,100882.75
2024-04-18T21:29:50.152Z,100872.09
2024-04-18T21:32:19.548Z,100874.59
2024-04-18T21:34:49.101Z,100871.97
2024-04-18T21:37:16.009Z,100859.75
2024-04-18T21:39:45.552Z,100857.25
2024-04-18T21:42:12.316Z,100854.13
2024-04-18T21:44:41.819Z,100859.75
2024-04-18T21:47:08.570Z,100846.41
2024-04-18T21:49:40.671Z,100844.91
2024-04-18T21:52:07.630Z,100841.09
2024-04-18T21:54:37.166Z,100839.78
2024-04-18T21:57:06.897Z,100833.34
2024-04-18T21:59:36.786Z,100807.81
2024-04-18T22:02:03.961Z,100822.91
2024-04-18T22:04:33.514Z,100816.28
2024-04-18T22:07:02.939Z,100813.44
2024-04-18T22:09:32.535Z,100817.44
2024-04-18T22:11:59.541Z,100818.56
2024-04-18T22:14:29.045Z,100808.88
2024-04-18T22:16:55.812Z,100795.13
2024-04-18T22:19:25.518Z,100784.03
2024-04-18T22:21:54.079Z,100788.38
2024-04-18T22:24:26.247Z,100785.25
2024-04-18T22:26:53.150Z,100772.66
2024-04-18T22:29:22.657Z,100761.66
2024-04-18T22:31:49.446Z,100757.13
2024-04-18T22:34:27.558Z,100758.19
2024-04-18T22:37:00.690Z,100744.28
2024-04-18T22:39:30.543Z,100740.50
2024-04-18T22:42:00.063Z,100742.00
2024-04-18T22:44:26.793Z,100729.50
2024-04-18T22:46:56.269Z,100741.84
2024-04-18T22:49:23.064Z,100720.72
2024-04-18T22:51:52.645Z,100729.25
2024-04-18T22:54:19.587Z,100711.78
2024-04-18T22:57:18.176Z,100712.28
2024-04-18T22:59:47.049Z,100712.56
2024-04-18T23:02:16.896Z,100694.47
2024-04-18T23:04:44.006Z,100696.53
2024-04-18T23:07:13.815Z,100687.00
2024-04-18T23:09:40.750Z,100681.47
2024-04-18T23:12:10.726Z,100656.91
2024-04-18T23:14:40.269Z,100667.19
2024-04-18T23:17:09.605Z,100657.91
2024-04-18T23:19:36.497Z,100645.84
2024-04-18T23:22:06.558Z,100643.94
2024-04-18T23:24:39.411Z,100651.59
2024-04-18T23:27:09.075Z,100630.81
2024-04-18T23:29:36.036Z,100635.06
2024-04-18T23:32:09.368Z,100636.25
2024-04-18T23:34:36.248Z,100625.97
2024-04-18T23:37:07.047Z,100619.25
2024-04-18T23:39:34.029Z,100613.78
2024-04-18T23:42:03.579Z,100606.47
2024-04-18T23:44:30.419Z,100606.88
2024-04-18T23:47:00.884Z,100602.41
2024-04-18T23:49:33.325Z,100592.97
2024-04-18T23:52:02.814Z,100575.22
2024-04-18T23:54:29.672Z,100579.56
2024-04-18T23:56:59.158Z,100578.53
2024-04-18T23:59:25.897Z,100585.09
